createdAt,value
2023-03-04T00:00:09.907Z,12.43
2023-03-04T00:02:38.471Z,13.43
2023-03-04T00:05:09.659Z,12.73
2023-03-04T00:07:38.068Z,12.23
2023-03-04T00:10:08.221Z,13.17
2023-03-04T00:12:36.684Z,11.50
2023-03-04T00:15:05.802Z,11.77
2023-03-04T00:17:34.213Z,13.40
2023-03-04T00:20:02.621Z,12.37
2023-03-04T00:22:32.354Z,12.23
2023-03-04T00:25:00.731Z,12.10
2023-03-04T00:27:29.438Z,11.53
2023-03-04T00:29:58.077Z,12.13
2023-03-04T00:32:26.648Z,12.87
2023-03-04T00:34:55.043Z,13.70
2023-03-04T00:37:23.542Z,11.53
2023-03-04T00:39:53.558Z,11.37
2023-03-04T00:42:21.934Z,12.70
2023-03-04T00:44:51.541Z,12.43
2023-03-04T00:47:19.965Z,13.40
2023-03-04T00:49:48.325Z,12.90
2023-03-04T00:52:16.883Z,12.03
2023-03-04T00:54:45.296Z,12.80
2023-03-04T00:57:15.099Z,12.67
2023-03-04T00:59:44.527Z,13.90
2023-03-04T01:02:13.742Z,12.77
2023-03-04T01:04:43.114Z,14.43
2023-03-04T01:07:11.729Z,13.93
2023-03-04T01:09:40.234Z,15.00
2023-03-04T01:12:09.369Z,13.67
2023-03-04T01:14:39.363Z,13.97
2023-03-04T01:17:07.774Z,14.07
2023-03-04T01:19:36.252Z,13.63
2023-03-04T01:22:04.723Z,14.37
2023-03-04T01:24:33.129Z,13.10
2023-03-04T01:27:01.578Z,12.70
2023-03-04T01:29:30.397Z,13.53
2023-03-04T01:32:00.303Z,12.43
2023-03-04T01:34:28.728Z,13.90
2023-03-04T01:36:57.135Z,13.33
2023-03-04T01:39:25.609Z,15.03
2023-03-04T01:41:54.039Z,15.27
2023-03-04T01:44:22.995Z,15.40
2023-03-04T01:46:55.222Z,14.53
2023-03-04T01:49:25.090Z,12.93
2023-03-04T01:51:55.814Z,13.40
2023-03-04T01:54:24.791Z,11.60
2023-03-04T01:56:54.308Z,12.23
2023-03-04T01:59:26.772Z,11.23
2023-03-04T02:01:57.895Z,13.67
2023-03-04T02:04:30.161Z,12.93
2023-03-04T02:07:00.753Z,13.63
2023-03-04T02:09:31.249Z,14.77
2023-03-04T02:12:08.694Z,13.30
2023-03-04T02:14:37.120Z,13.60
2023-03-04T02:17:11.519Z,13.40
2023-03-04T02:19:50.459Z,12.03
2023-03-04T02:22:18.932Z,13.30
2023-03-04T02:24:54.380Z,12.83
2023-03-04T02:27:24.453Z,12.43
2023-03-04T02:29:52.902Z,12.43
2023-03-04T02:32:21.468Z,11.50
2023-03-04T02:34:52.002Z,12.93
2023-03-04T02:37:21.780Z,12.13
2023-03-04T02:39:51.528Z,13.00
2023-03-04T02:42:20.076Z,12.53
2023-03-04T02:44:50.574Z,12.67
2023-03-04T02:47:20.369Z,12.07
2023-03-04T02:49:49.091Z,13.00
2023-03-04T02:52:22.384Z,15.93
2023-03-04T02:54:50.933Z,13.43
2023-03-04T02:57:19.295Z,13.63
2023-03-04T02:59:49.082Z,14.23
2023-03-04T03:02:17.495Z,14.33
2023-03-04T03:04:46.188Z,13.93
2023-03-04T03:07:14.600Z,14.47
2023-03-04T03:09:42.986Z,14.23
2023-03-04T03:12:11.385Z,14.67
2023-03-04T03:14:39.831Z,15.00
2023-03-04T03:17:10.622Z,14.03
2023-03-04T03:19:39.069Z,13.30
2023-03-04T03:22:08.370Z,12.90
2023-03-04T03:24:36.816Z,15.47
2023-03-04T03:27:05.592Z,15.37
2023-03-04T03:29:33.959Z,14.63
2023-03-04T03:32:02.493Z,15.13
2023-03-04T03:34:32.368Z,13.53
2023-03-04T03:37:00.767Z,13.83
2023-03-04T03:39:29.254Z,13.03
2023-03-04T03:41:57.714Z,14.63
2023-03-04T03:44:26.238Z,13.80
2023-03-04T03:46:54.638Z,15.40
2023-03-04T03:49:22.996Z,15.13
2023-03-04T03:51:52.771Z,14.37
2023-03-04T03:54:21.201Z,13.47
2023-03-04T03:56:49.528Z,13.53
2023-03-04T03:59:17.900Z,13.87
2023-03-04T04:01:46.345Z,14.67
2023-03-04T04:04:15.394Z,14.10
2023-03-04T04:06:43.798Z,15.67
2023-03-04T04:09:13.562Z,15.30
2023-03-04T04:11:42.048Z,14.33
2023-03-04T04:14:13.333Z,14.60
2023-03-04T04:16:42.127Z,14.53
2023-03-04T04:19:18.022Z,15.00
2023-03-04T04:21:47.604Z,14.10
2023-03-04T04:24:17.826Z,14.50
2023-03-04T04:26:46.366Z,13.20
2023-03-04T04:29:16.341Z,14.70
2023-03-04T04:31:44.773Z,13.60
2023-03-04T04:34:13.158Z,14.07
2023-03-04T04:36:41.666Z,15.77
2023-03-04T04:39:09.991Z,13.63
2023-03-04T04:41:43.656Z,13.70
2023-03-04T04:44:13.399Z,13.37
2023-03-04T04:46:42.630Z,12.83
2023-03-04T04:49:11.638Z,14.83
2023-03-04T04:51:41.122Z,13.20
2023-03-04T04:54:09.931Z,13.47
2023-03-04T04:56:39.779Z,12.90
2023-03-04T04:59:08.778Z,13.73
2023-03-04T05:01:37.600Z,13.80
2023-03-04T05:04:06.691Z,11.83
2023-03-04T05:06:35.487Z,12.37
2023-03-04T05:09:04.487Z,13.73
2023-03-04T05:11:33.173Z,13.07
2023-03-04T05:14:03.009Z,12.70
2023-03-04T05:16:31.404Z,12.73
2023-03-04T05:18:59.843Z,12.17
2023-03-04T05:21:28.354Z,13.07
2023-03-04T05:23:56.736Z,12.90
2023-03-04T05:26:25.131Z,13.53
2023-03-04T05:28:53.647Z,12.27
2023-03-04T05:31:23.526Z,12.40
2023-03-04T05:33:51.959Z,12.07
2023-03-04T05:36:20.670Z,12.23
2023-03-04T05:38:49.052Z,12.20
2023-03-04T05:41:18.992Z,12.43
2023-03-04T05:43:47.517Z,11.37
2023-03-04T05:46:18.137Z,12.47
2023-03-04T05:48:48.554Z,12.40
2023-03-04T05:51:17.029Z,11.90
2023-03-04T05:53:45.451Z,11.17
2023-03-04T05:56:16.068Z,12.03
2023-03-04T05:58:45.268Z,11.43
2023-03-04T06:01:13.686Z,11.13
2023-03-04T06:03:44.685Z,11.27
2023-03-04T06:06:14.468Z,11.97
2023-03-04T06:08:42.921Z,11.13
2023-03-04T06:11:11.653Z,11.67
2023-03-04T06:13:40.304Z,11.47
2023-03-04T06:16:09.633Z,10.77
2023-03-04T06:18:38.137Z,11.73
2023-03-04T06:21:07.510Z,11.73
2023-03-04T06:23:37.501Z,12.17
2023-03-04T06:26:09.358Z,11.60
2023-03-04T06:28:37.794Z,11.57
2023-03-04T06:31:06.819Z,11.50
2023-03-04T06:33:35.372Z,10.90
2023-03-04T06:36:04.319Z,11.43
2023-03-04T06:38:32.817Z,11.37
2023-03-04T06:41:09.830Z,11.20
2023-03-04T06:43:38.986Z,12.20
2023-03-04T06:46:08.297Z,11.03
2023-03-04T06:48:37.187Z,11.20
2023-03-04T06:51:10.281Z,11.20
2023-03-04T06:53:39.834Z,11.13
2023-03-04T06:56:11.971Z,12.33
2023-03-04T06:58:40.380Z,11.30
2023-03-04T07:01:17.513Z,11.30
2023-03-04T07:03:47.317Z,10.20
2023-03-04T07:06:19.078Z,11.27
2023-03-04T07:08:47.969Z,9.80
2023-03-04T07:11:18.577Z,11.77
2023-03-04T07:13:47.953Z,10.87
2023-03-04T07:16:21.425Z,11.47
2023-03-04T07:18:50.191Z,12.00
2023-03-04T07:21:20.217Z,11.40
2023-03-04T07:23:49.015Z,10.57
2023-03-04T07:26:19.306Z,11.77
2023-03-04T07:28:47.838Z,10.93
2023-03-04T07:31:23.806Z,10.57
2023-03-04T07:33:53.200Z,10.43
2023-03-04T07:36:21.752Z,10.27
2023-03-04T07:38:52.200Z,10.10
2023-03-04T07:41:24.031Z,9.33
2023-03-04T07:43:53.082Z,10.67
2023-03-04T07:46:21.919Z,9.60
2023-03-04T07:48:50.415Z,9.67
2023-03-04T07:51:21.763Z,10.03
2023-03-04T07:53:52.895Z,10.37
2023-03-04T07:56:26.443Z,10.40
2023-03-04T07:58:55.066Z,10.13
2023-03-04T08:01:26.851Z,9.70
2023-03-04T08:03:55.788Z,9.27
2023-03-04T08:06:24.654Z,9.93
2023-03-04T08:08:58.913Z,9.70
2023-03-04T08:11:30.889Z,9.63
2023-03-04T08:14:00.594Z,9.50
2023-03-04T08:16:29.782Z,9.73
2023-03-04T08:19:02.344Z,9.63
2023-03-04T08:21:31.557Z,8.70
2023-03-04T08:24:02.554Z,9.63
2023-03-04T08:26:40.724Z,9.77
2023-03-04T08:29:15.160Z,9.20
2023-03-04T08:31:48.573Z,9.17
2023-03-04T08:34:18.982Z,12.13
2023-03-04T08:36:47.461Z,10.27
2023-03-04T08:39:20.443Z,11.18
2023-03-04T08:41:50.961Z,11.47
2023-03-04T08:44:20.936Z,12.30
2023-03-04T08:46:49.366Z,9.00
2023-03-04T08:49:17.749Z,9.27
2023-03-04T08:51:46.215Z,10.63
2023-03-04T08:54:14.675Z,8.90
2023-03-04T08:56:43.937Z,9.43
2023-03-04T08:59:13.978Z,10.03
2023-03-04T09:01:42.765Z,9.87
2023-03-04T09:04:11.372Z,9.50
2023-03-04T09:06:39.928Z,10.10
2023-03-04T09:09:08.507Z,9.27
2023-03-04T09:11:38.312Z,9.27
2023-03-04T09:14:06.966Z,9.83
2023-03-04T09:16:41.812Z,9.27
2023-03-04T09:19:10.352Z,9.33
2023-03-04T09:21:38.794Z,10.55
2023-03-04T09:24:08.701Z,9.60
2023-03-04T09:26:37.617Z,9.17
2023-03-04T09:29:06.783Z,8.87
2023-03-04T09:31:36.739Z,9.20
2023-03-04T09:34:05.152Z,9.33
2023-03-04T09:36:33.868Z,9.10
2023-03-04T09:39:03.047Z,8.40
2023-03-04T09:41:41.907Z,8.97
2023-03-04T09:44:25.356Z,9.73
2023-03-04T09:47:01.432Z,8.87
2023-03-04T09:49:32.529Z,8.87
2023-03-04T09:52:13.755Z,10.13
2023-03-04T09:55:07.322Z,8.77
2023-03-04T09:57:50.273Z,8.70
2023-03-04T10:00:22.380Z,9.10
2023-03-04T10:03:13.158Z,9.23
2023-03-04T10:05:50.999Z,8.47
2023-03-04T10:08:42.207Z,8.33
2023-03-04T10:11:23.603Z,8.90
2023-03-04T10:14:05.427Z,8.73
2023-03-04T10:16:41.700Z,7.60
2023-03-04T10:19:33.425Z,7.20
2023-03-04T10:22:03.332Z,7.97
2023-03-04T10:24:32.357Z,8.23
2023-03-04T10:27:08.262Z,7.83
2023-03-04T10:29:37.654Z,8.47
2023-03-04T10:32:06.798Z,8.47
2023-03-04T10:34:39.738Z,8.20
2023-03-04T10:37:09.940Z,8.50
2023-03-04T10:39:42.888Z,8.20
2023-03-04T10:42:30.237Z,8.93
2023-03-04T10:45:02.109Z,8.33
2023-03-04T10:47:34.723Z,8.20
2023-03-04T10:50:07.719Z,8.37
2023-03-04T10:52:41.430Z,8.23
2023-03-04T10:55:18.601Z,8.43
2023-03-04T10:57:51.974Z,8.97
2023-03-04T11:00:32.442Z,8.00
2023-03-04T11:03:30.889Z,8.43
2023-03-04T11:06:19.981Z,8.73
2023-03-04T11:08:57.440Z,9.07
2023-03-04T11:11:34.838Z,8.80
2023-03-04T11:14:12.142Z,8.43
2023-03-04T11:16:40.817Z,8.03
2023-03-04T11:19:20.410Z,8.77
2023-03-04T11:21:53.881Z,8.03
2023-03-04T11:24:29.439Z,7.60
2023-03-04T11:27:04.614Z,8.30
2023-03-04T11:29:38.468Z,9.00
2023-03-04T11:32:13.320Z,8.57
2023-03-04T11:34:50.456Z,8.67
2023-03-04T11:37:29.722Z,8.40
2023-03-04T11:40:03.800Z,7.63
2023-03-04T11:42:43.436Z,8.10
2023-03-04T11:45:28.428Z,8.43
2023-03-04T11:48:10.820Z,8.47
2023-03-04T11:50:50.032Z,8.57
2023-03-04T11:53:41.300Z,8.20
2023-03-04T11:56:36.392Z,10.00
2023-03-04T11:59:45.185Z,8.73
2023-03-04T12:02:19.411Z,8.07
2023-03-04T12:05:33.091Z,8.50
2023-03-04T12:08:36.213Z,8.27
2023-03-04T12:11:17.260Z,9.27
2023-03-04T12:14:27.236Z,9.23
2023-03-04T12:17:19.720Z,8.70
2023-03-04T12:20:41.961Z,9.07
2023-03-04T12:23:37.051Z,8.80
2023-03-04T12:26:29.768Z,8.40
2023-03-04T12:29:07.804Z,9.57
2023-03-04T12:31:42.890Z,9.10
2023-03-04T12:34:39.513Z,8.83
2023-03-04T12:37:45.793Z,8.93
2023-03-04T12:40:39.511Z,8.77
2023-03-04T12:43:44.982Z,7.77
2023-03-04T12:46:40.981Z,7.57
2023-03-04T12:49:35.628Z,7.47
2023-03-04T12:52:16.257Z,8.23
2023-03-04T12:54:50.165Z,8.23
2023-03-04T12:57:22.168Z,7.87
2023-03-04T13:00:00.635Z,6.87
2023-03-04T13:02:54.036Z,7.20
2023-03-04T13:05:37.526Z,7.40
2023-03-04T13:08:19.669Z,7.33
2023-03-04T13:10:48.102Z,6.17
2023-03-04T13:13:41.959Z,6.97
2023-03-04T13:16:32.710Z,6.70
2023-03-04T13:19:01.785Z,5.67
2023-03-04T13:21:32.767Z,6.27
2023-03-04T13:24:25.653Z,4.70
2023-03-04T13:26:54.273Z,4.27
2023-03-04T13:29:37.131Z,5.23
2023-03-04T13:32:12.854Z,4.93
2023-03-04T13:34:54.068Z,4.80
2023-03-04T13:37:34.974Z,4.73
2023-03-04T13:40:37.881Z,4.57
2023-03-04T13:43:29.340Z,2.43
2023-03-04T13:45:59.112Z,1.87
2023-03-04T13:48:36.537Z,1.60
2023-03-04T13:51:06.112Z,1.60
2023-03-04T13:53:53.254Z,1.33
2023-03-04T13:56:31.432Z,1.60
2023-03-04T13:59:33.438Z,1.50
2023-03-04T14:02:15.048Z,1.63
2023-03-04T14:04:47.695Z,2.00
2023-03-04T14:07:25.519Z,1.70
2023-03-04T14:10:04.950Z,1.63
2023-03-04T14:12:36.635Z,1.70
2023-03-04T14:15:08.241Z,1.70
2023-03-04T14:17:38.145Z,1.53
2023-03-04T14:20:29.243Z,2.13
2023-03-04T14:22:59.080Z,1.43
2023-03-04T14:25:30.476Z,2.17
2023-03-04T14:28:08.112Z,1.60
2023-03-04T14:30:44.645Z,1.80
2023-03-04T14:33:20.654Z,1.80
2023-03-04T14:35:54.828Z,1.90
2023-03-04T14:38:28.030Z,2.07
2023-03-04T14:41:03.746Z,1.80
2023-03-04T14:43:37.438Z,1.67
2023-03-04T14:46:13.592Z,1.97
2023-03-04T14:48:55.499Z,1.83
2023-03-04T14:51:42.880Z,1.70
2023-03-04T14:54:42.767Z,1.67
2023-03-04T14:57:35.025Z,1.50
2023-03-04T15:00:25.636Z,1.93
2023-03-04T15:02:55.896Z,1.87
2023-03-04T15:05:29.266Z,1.50
2023-03-04T15:08:01.873Z,1.40
2023-03-04T15:10:33.469Z,1.33
2023-03-04T15:13:06.447Z,1.30
2023-03-04T15:15:42.727Z,1.30
2023-03-04T15:18:23.381Z,1.20
2023-03-04T15:21:01.223Z,1.27
2023-03-04T15:23:33.884Z,1.10
2023-03-04T15:26:04.931Z,1.37
2023-03-04T15:28:37.525Z,1.27
2023-03-04T15:31:07.160Z,1.33
2023-03-04T15:33:35.839Z,1.77
2023-03-04T15:36:05.649Z,1.37
2023-03-04T15:38:35.825Z,1.10
2023-03-04T15:41:07.989Z,1.00
2023-03-04T15:43:36.576Z,1.13
2023-03-04T15:46:05.489Z,1.23
2023-03-04T15:48:33.923Z,1.20
2023-03-04T15:51:04.340Z,0.90
2023-03-04T15:53:39.870Z,1.00
2023-03-04T15:56:15.680Z,1.23
2023-03-04T15:58:45.426Z,1.50
2023-03-04T16:01:18.500Z,2.17
2023-03-04T16:03:47.393Z,1.27
2023-03-04T16:06:21.297Z,1.23
2023-03-04T16:08:52.750Z,1.10
2023-03-04T16:11:25.084Z,1.10
2023-03-04T16:13:54.271Z,1.43
2023-03-04T16:16:23.013Z,1.37
2023-03-04T16:18:51.621Z,1.40
2023-03-04T16:21:23.588Z,1.20
2023-03-04T16:23:54.639Z,1.90
2023-03-04T16:26:25.007Z,1.70
2023-03-04T16:28:55.691Z,1.43
2023-03-04T16:31:27.001Z,1.10
2023-03-04T16:33:55.578Z,0.90
2023-03-04T16:36:27.580Z,0.90
2023-03-04T16:39:02.599Z,0.87
2023-03-04T16:41:32.437Z,1.10
2023-03-04T16:44:01.645Z,1.00
2023-03-04T16:46:33.458Z,0.93
2023-03-04T16:49:02.100Z,0.93
2023-03-04T16:51:30.906Z,1.00
2023-03-04T16:54:01.387Z,1.00
2023-03-04T16:56:30.751Z,1.20
2023-03-04T16:59:00.266Z,1.30
2023-03-04T17:01:30.353Z,1.50
2023-03-04T17:03:58.843Z,0.90
2023-03-04T17:06:28.269Z,1.00
2023-03-04T17:08:56.928Z,1.07
2023-03-04T17:11:27.086Z,1.00
2023-03-04T17:13:57.906Z,0.87
2023-03-04T17:16:26.479Z,1.20
2023-03-04T17:18:55.422Z,1.20
2023-03-04T17:21:26.761Z,1.40
2023-03-04T17:23:55.781Z,1.53
2023-03-04T17:26:26.392Z,1.70
2023-03-04T17:28:55.322Z,1.40
2023-03-04T17:31:23.799Z,1.10
2023-03-04T17:33:52.281Z,1.43
2023-03-04T17:36:21.833Z,1.03
2023-03-04T17:38:52.171Z,1.40
2023-03-04T17:41:21.992Z,1.00
2023-03-04T17:43:54.778Z,1.03
2023-03-04T17:46:26.771Z,1.07
2023-03-04T17:48:56.552Z,1.13
2023-03-04T17:51:33.274Z,1.13
2023-03-04T17:54:02.216Z,1.00
2023-03-04T17:56:33.953Z,1.07
2023-03-04T17:59:08.150Z,1.20
2023-03-04T18:01:37.870Z,1.00
2023-03-04T18:04:06.757Z,0.80
2023-03-04T18:06:35.321Z,0.93
2023-03-04T18:09:04.051Z,1.03
2023-03-04T18:11:35.594Z,1.30
2023-03-04T18:14:05.952Z,1.20
2023-03-04T18:16:35.979Z,0.87
2023-03-04T18:19:04.897Z,2.17
2023-03-04T18:21:33.822Z,2.77
2023-03-04T18:24:14.053Z,2.03
2023-03-04T18:26:42.581Z,0.90
2023-03-04T18:29:12.599Z,1.00
2023-03-04T18:31:41.505Z,1.00
2023-03-04T18:34:11.434Z,0.80
2023-03-04T18:36:40.116Z,0.90
2023-03-04T18:39:09.577Z,0.70
2023-03-04T18:41:37.982Z,0.80
2023-03-04T18:44:10.034Z,1.07
2023-03-04T18:46:46.557Z,0.87
2023-03-04T18:49:17.016Z,0.73
2023-03-04T18:51:45.573Z,0.90
2023-03-04T18:54:14.154Z,0.90
2023-03-04T18:56:48.783Z,0.90
2023-03-04T18:59:23.348Z,0.70
2023-03-04T19:01:55.790Z,0.93
2023-03-04T19:04:27.889Z,1.00
2023-03-04T19:06:56.870Z,1.10
2023-03-04T19:09:25.505Z,1.23
2023-03-04T19:11:54.120Z,1.20
2023-03-04T19:14:22.564Z,1.30
2023-03-04T19:16:52.682Z,1.30
2023-03-04T19:19:21.373Z,1.33
2023-03-04T19:21:49.930Z,1.53
2023-03-04T19:24:18.464Z,1.43
2023-03-04T19:26:47.169Z,2.23
2023-03-04T19:29:16.146Z,1.93
2023-03-04T19:31:44.880Z,1.17
2023-03-04T19:34:14.801Z,1.13
2023-03-04T19:36:43.458Z,1.13
2023-03-04T19:39:14.567Z,1.47
2023-03-04T19:41:44.313Z,1.30
2023-03-04T19:44:14.718Z,1.50
2023-03-04T19:46:43.983Z,1.80
2023-03-04T19:49:12.553Z,1.23
2023-03-04T19:51:43.908Z,1.60
2023-03-04T19:54:12.701Z,1.20
2023-03-04T19:56:41.258Z,1.70
2023-03-04T19:59:10.204Z,1.10
2023-03-04T20:01:39.640Z,1.50
2023-03-04T20:04:11.821Z,1.53
2023-03-04T20:06:44.772Z,1.10
2023-03-04T20:09:15.282Z,1.63
2023-03-04T20:11:57.258Z,1.20
2023-03-04T20:14:26.736Z,1.20
2023-03-04T20:16:55.260Z,1.30
2023-03-04T20:19:23.758Z,1.13
2023-03-04T20:21:53.600Z,1.40
2023-03-04T20:24:23.364Z,1.30
2023-03-04T20:26:52.565Z,1.30
2023-03-04T20:29:21.177Z,1.47
2023-03-04T20:31:50.052Z,1.63
2023-03-04T20:34:19.026Z,1.37
2023-03-04T20:36:47.559Z,1.27
2023-03-04T20:39:28.753Z,1.67
2023-03-04T20:41:58.475Z,2.03
2023-03-04T20:44:27.604Z,1.53
2023-03-04T20:46:56.136Z,2.10
2023-03-04T20:49:28.095Z,1.40
2023-03-04T20:52:02.923Z,2.00
2023-03-04T20:54:33.423Z,1.77
2023-03-04T20:57:02.062Z,1.73
2023-03-04T20:59:30.636Z,1.93
2023-03-04T21:01:59.766Z,1.83
2023-03-04T21:04:28.515Z,1.63
2023-03-04T21:06:57.223Z,1.70
2023-03-04T21:09:26.871Z,1.70
2023-03-04T21:11:58.616Z,2.07
2023-03-04T21:14:32.396Z,2.47
2023-03-04T21:17:06.479Z,1.50
2023-03-04T21:19:40.121Z,1.63
2023-03-04T21:22:09.192Z,1.83
2023-03-04T21:24:39.918Z,2.30
2023-03-04T21:27:09.894Z,2.20
2023-03-04T21:29:38.622Z,2.17
2023-03-04T21:32:24.369Z,2.50
2023-03-04T21:34:55.520Z,2.20
2023-03-04T21:37:25.641Z,2.10
2023-03-04T21:39:55.356Z,2.10
2023-03-04T21:42:27.543Z,2.10
2023-03-04T21:44:56.012Z,2.60
2023-03-04T21:47:24.592Z,2.60
2023-03-04T21:49:53.608Z,2.60
2023-03-04T21:52:23.491Z,2.60
2023-03-04T21:54:51.994Z,2.73
2023-03-04T21:57:20.817Z,3.00
2023-03-04T21:59:50.815Z,3.20
2023-03-04T22:02:22.763Z,2.53
2023-03-04T22:04:51.434Z,3.57
2023-03-04T22:07:20.246Z,2.50
2023-03-04T22:09:49.281Z,2.80
2023-03-04T22:12:19.589Z,3.30
2023-03-04T22:14:49.931Z,2.50
2023-03-04T22:17:18.769Z,2.80
2023-03-04T22:19:47.342Z,2.27
2023-03-04T22:22:18.101Z,2.60
2023-03-04T22:24:46.916Z,2.13
2023-03-04T22:27:15.647Z,2.27
2023-03-04T22:29:44.138Z,2.27
2023-03-04T22:32:15.072Z,2.03
2023-03-04T22:34:43.993Z,1.97
2023-03-04T22:37:12.568Z,2.20
2023-03-04T22:39:41.095Z,1.90
2023-03-04T22:42:11.772Z,2.20
2023-03-04T22:44:40.439Z,2.13
2023-03-04T22:47:09.454Z,2.43
2023-03-04T22:49:41.242Z,2.47
2023-03-04T22:52:09.716Z,2.40
2023-03-04T22:54:38.188Z,2.33
2023-03-04T22:57:06.874Z,2.77
2023-03-04T22:59:35.314Z,2.40
2023-03-04T23:02:04.881Z,2.53
2023-03-04T23:04:33.492Z,2.60
2023-03-04T23:07:03.515Z,3.50
2023-03-04T23:09:32.092Z,2.80
2023-03-04T23:12:00.559Z,2.90
2023-03-04T23:14:29.270Z,2.33
2023-03-04T23:16:58.000Z,3.00
2023-03-04T23:19:26.742Z,3.20
2023-03-04T23:21:55.700Z,2.53
2023-03-04T23:24:26.717Z,2.73
2023-03-04T23:26:55.261Z,2.43
2023-03-04T23:29:23.808Z,2.47
2023-03-04T23:31:52.589Z,2.40
2023-03-04T23:34:22.407Z,2.83
2023-03-04T23:36:51.194Z,3.10
2023-03-04T23:39:19.828Z,2.70
2023-03-04T23:41:49.745Z,2.70
2023-03-04T23:44:18.519Z,2.77
2023-03-04T23:46:46.954Z,2.63
2023-03-04T23:49:17.929Z,3.00
2023-03-04T23:51:48.009Z,2.80
2023-03-04T23:54:16.841Z,3.33
2023-03-04T23:56:45.533Z,3.47
2023-03-04T23:59:15.739Z,3.40
